Time;durP1;ratioP1;P1;durP2;ratioP2;P2;SDS_P1;SDS_P2;PMS_P1;PMS_P2;Temp;Humidity;BMP_temperature;BMP_pressure;BME280_temperature;BME280_humidity;BME280_pressure;Samples;Min_cycle;Max_cycle;Signal;HPM_P1;HPM_P2
2022/10/18 00:01:46;;;;;;;1.20;1.00;;;;;;;14.36;89.00;96407.16;4340892;32;20186;-62
2022/10/18 00:04:12;;;;;;;2.93;0.70;;;;;;;14.39;89.26;96423.38;4339400;32;20292;-62
2022/10/18 00:06:37;;;;;;;1.20;1.20;;;;;;;14.44;89.30;96411.87;4331043;32;20181;-62
2022/10/18 00:09:03;;;;;;;0.80;0.80;;;;;;;14.44;88.70;96410.00;4331631;32;20228;-62
2022/10/18 00:11:28;;;;;;;1.60;1.50;;;;;;;14.51;87.63;96420.31;4335369;32;20193;-62
2022/10/18 00:13:55;;;;;;;1.37;1.20;;;;;;;14.55;87.28;96412.53;4337866;32;20241;-62
2022/10/18 00:16:21;;;;;;;1.17;0.80;;;;;;;14.41;87.85;96407.91;4341690;32;20189;-63
2022/10/18 00:18:47;;;;;;;0.73;0.73;;;;;;;14.39;88.48;96418.03;4330120;32;20190;-62
2022/10/18 00:21:20;;;;;;;2.93;1.47;;;;;;;14.34;89.17;96414.69;4336053;32;20228;-62
2022/10/18 00:23:47;;;;;;;1.37;1.33;;;;;;;14.49;89.55;96411.00;4327605;32;20203;-62
2022/10/18 00:26:21;;;;;;;1.33;1.27;;;;;;;14.56;89.04;96411.41;4326956;32;20211;-62
2022/10/18 00:28:50;;;;;;;1.50;1.40;;;;;;;14.42;89.87;96406.03;4333615;32;20243;-62
2022/10/18 00:31:16;;;;;;;0.90;0.90;;;;;;;14.37;90.62;96408.75;4327226;32;20240;-62
2022/10/18 00:33:46;;;;;;;1.33;1.33;;;;;;;14.37;90.62;96406.84;4340950;32;20200;-62
2022/10/18 00:36:12;;;;;;;1.00;0.77;;;;;;;14.44;90.48;96403.87;4335640;32;20201;-62
2022/10/18 00:38:38;;;;;;;1.20;1.20;;;;;;;14.49;90.17;96400.31;4339167;32;20206;-62
2022/10/18 00:41:05;;;;;;;1.50;1.40;;;;;;;14.56;89.79;96409.53;4340346;32;20222;-62
2022/10/18 00:43:31;;;;;;;1.10;1.10;;;;;;;14.40;90.61;96406.31;4340510;32;20287;-62
2022/10/18 00:45:57;;;;;;;1.50;1.40;;;;;;;14.50;89.96;96408.06;4322232;32;20186;-62
2022/10/18 00:48:22;;;;;;;1.43;1.43;;;;;;;14.40;90.43;96405.50;4334168;32;20200;-63
2022/10/18 00:50:51;;;;;;;1.60;1.50;;;;;;;14.34;90.79;96404.00;4327850;32;20235;-62
2022/10/18 00:53:21;;;;;;;4.83;1.13;;;;;;;14.39;90.38;96401.22;4340490;32;20181;-62
2022/10/18 00:55:47;;;;;;;0.90;0.90;;;;;;;14.41;90.30;96407.91;4340381;32;20182;-62
2022/10/18 00:58:15;;;;;;;5.57;2.07;;;;;;;14.41;90.18;96407.91;4331506;32;20232;-62
2022/10/18 01:00:40;;;;;;;1.67;1.57;;;;;;;14.35;90.10;96401.00;4339572;32;20279;-62
2022/10/18 01:03:07;;;;;;;11.63;1.43;;;;;;;14.23;90.45;96403.34;4326776;32;20243;-62
2022/10/18 01:05:37;;;;;;;1.73;1.63;;;;;;;14.30;90.37;96408.34;4345070;32;20189;-62
2022/10/18 01:08:27;;;;;;;1.53;1.43;;;;;;;14.06;91.39;96395.06;4354900;32;20192;-62
2022/10/18 01:11:08;;;;;;;1.47;1.47;;;;;;;13.92;92.88;96391.53;4346240;32;20208;-62
2022/10/18 01:13:51;;;;;;;1.70;1.67;;;;;;;14.15;91.94;96397.84;4344653;32;20181;-62
2022/10/18 01:16:23;;;;;;;1.37;1.37;;;;;;;14.18;91.41;96399.94;4327314;32;20261;-62
2022/10/18 01:18:56;;;;;;;1.30;1.20;;;;;;;14.13;91.51;96389.38;4354700;32;20182;-62
2022/10/18 01:21:43;;;;;;;0.90;0.90;;;;;;;14.00;91.87;96394.31;4331888;32;20173;-63
2022/10/18 01:24:38;;;;;;;1.80;1.23;;;;;;;14.14;91.10;96399.72;4354159;32;20177;-62
2022/10/18 01:27:18;;;;;;;3.27;1.73;;;;;;;14.15;90.93;96392.50;4334803;32;20185;-62
2022/10/18 01:30:02;;;;;;;1.30;1.17;;;;;;;14.03;91.81;96388.41;4350465;32;20188;-62
2022/10/18 01:32:40;;;;;;;1.57;1.57;;;;;;;14.01;91.26;96387.91;4321543;32;20200;-62
2022/10/18 01:35:12;;;;;;;1.13;1.13;;;;;;;13.98;91.39;96390.34;4339643;32;20189;-62
2022/10/18 01:37:40;;;;;;;1.10;1.10;;;;;;;13.93;91.44;96383.22;4336318;32;20189;-62
2022/10/18 01:40:08;;;;;;;0.50;0.50;;;;;;;13.99;91.09;96386.59;4326265;32;20237;-62
2022/10/18 01:42:33;;;;;;;1.53;1.43;;;;;;;14.01;90.71;96373.78;4319530;32;20207;-62
2022/10/18 01:45:02;;;;;;;1.40;1.30;;;;;;;13.97;90.22;96384.22;4337194;32;20289;-62
2022/10/18 01:47:27;;;;;;;3.90;1.60;;;;;;;13.92;90.12;96384.31;4330323;32;20204;-62
2022/10/18 01:50:01;;;;;;;1.00;1.00;;;;;;;14.00;89.45;96389.00;4326750;32;20253;-62
2022/10/18 01:52:26;;;;;;;1.30;1.20;;;;;;;13.96;89.49;96384.50;4337832;32;20181;-62
2022/10/18 01:54:54;;;;;;;1.13;1.03;;;;;;;13.93;89.44;96390.41;4340651;32;20223;-62
2022/10/18 01:57:32;;;;;;;1.43;1.33;;;;;;;13.98;89.21;96399.16;4327608;32;20208;-62
2022/10/18 02:00:13;;;;;;;1.90;1.63;;;;;;;13.79;89.34;96392.22;4332251;32;20181;-62
2022/10/18 02:02:57;;;;;;;1.10;1.00;;;;;;;13.81;89.28;96382.06;4325341;33;20228;-62
2022/10/18 02:05:53;;;;;;;1.10;1.10;;;;;;;13.86;88.67;96390.00;4334616;32;20185;-62
2022/10/18 02:08:35;;;;;;;1.03;0.90;;;;;;;13.90;88.00;96380.34;4330756;33;20237;-62
2022/10/18 02:11:16;;;;;;;1.70;1.60;;;;;;;13.81;88.18;96379.38;4338408;33;20204;-62
2022/10/18 02:13:46;;;;;;;1.00;1.00;;;;;;;13.84;87.58;96373.50;4342984;32;20274;-62
2022/10/18 02:16:43;;;;;;;3.03;1.63;;;;;;;13.86;87.45;96387.34;4348107;32;20303;-62
2022/10/18 02:19:33;;;;;;;1.03;1.03;;;;;;;13.49;88.32;96394.19;4343708;32;20252;-62
2022/10/18 02:22:00;;;;;;;0.87;0.87;;;;;;;13.60;88.29;96401.00;4340717;32;20228;-62
2022/10/18 02:24:33;;;;;;;1.37;1.27;;;;;;;13.32;88.17;96402.63;4338584;32;20182;-62
2022/10/18 02:26:59;;;;;;;1.10;1.10;;;;;;;13.36;88.47;96395.66;4335474;33;20229;-62
2022/10/18 02:29:24;;;;;;;1.47;0.83;;;;;;;13.44;87.59;96402.25;4337456;32;20173;-62
2022/10/18 02:31:54;;;;;;;1.33;1.23;;;;;;;13.52;87.13;96395.47;4336929;33;20185;-62
2022/10/18 02:34:26;;;;;;;0.80;0.80;;;;;;;13.57;86.11;96392.75;4348032;32;20173;-62
2022/10/18 02:36:53;;;;;;;0.80;0.80;;;;;;;13.53;86.42;96392.53;4349758;32;20260;-63
2022/10/18 02:39:28;;;;;;;1.07;0.97;;;;;;;13.58;85.56;96381.81;4343470;32;20199;-62
2022/10/18 02:41:54;;;;;;;0.50;0.50;;;;;;;13.56;85.99;96383.16;4345769;32;20194;-62
2022/10/18 02:44:20;;;;;;;0.70;0.70;;;;;;;13.55;85.98;96387.72;4342863;32;20204;-63
2022/10/18 02:46:46;;;;;;;0.90;0.90;;;;;;;13.65;85.02;96386.81;4336506;33;20186;-62
2022/10/18 02:49:11;;;;;;;1.00;1.00;;;;;;;13.69;84.48;96398.50;4347304;32;20308;-62
2022/10/18 02:51:37;;;;;;;0.33;0.33;;;;;;;13.55;85.00;96390.38;4343210;32;20185;-62
2022/10/18 02:54:02;;;;;;;0.80;0.80;;;;;;;13.62;84.92;96382.84;4328567;33;20193;-62
2022/10/18 02:56:27;;;;;;;0.90;0.80;;;;;;;13.54;84.91;96385.31;4338426;32;20182;-62
2022/10/18 02:58:53;;;;;;;0.50;0.50;;;;;;;13.60;84.87;96386.88;4337765;32;20181;-62
2022/10/18 03:01:18;;;;;;;0.60;0.60;;;;;;;13.47;85.10;96396.34;4340952;33;20210;-62
2022/10/18 03:03:44;;;;;;;1.77;1.40;;;;;;;13.60;85.12;96403.66;4337962;32;20184;-62
2022/10/18 03:06:09;;;;;;;0.93;0.93;;;;;;;13.60;84.83;96398.31;4325640;32;20198;-62
2022/10/18 03:08:35;;;;;;;0.53;0.53;;;;;;;13.34;85.96;96387.16;4351097;32;20199;-62
2022/10/18 03:11:00;;;;;;;7.70;1.00;;;;;;;13.28;86.48;96398.19;4345107;32;20189;-62
2022/10/18 03:13:25;;;;;;;0.70;0.70;;;;;;;13.51;85.44;96389.34;4343335;32;20236;-62
2022/10/18 03:15:51;;;;;;;0.53;0.53;;;;;;;13.56;84.94;96394.63;4327834;32;20201;-64
2022/10/18 03:18:16;;;;;;;2.17;0.73;;;;;;;13.46;85.08;96388.66;4324510;33;20186;-62
2022/10/18 03:20:41;;;;;;;1.00;1.00;;;;;;;13.46;85.20;96388.66;4325977;32;20249;-62
2022/10/18 03:23:07;;;;;;;0.80;0.80;;;;;;;13.54;84.99;96391.44;4319682;32;20189;-62
2022/10/18 03:25:33;;;;;;;2.37;0.60;;;;;;;13.45;85.60;96398.50;4328090;32;20202;-62
2022/10/18 03:27:58;;;;;;;1.07;1.07;;;;;;;13.42;85.74;96407.06;4328089;32;20177;-61
2022/10/18 03:30:24;;;;;;;0.83;0.80;;;;;;;13.36;86.17;96406.31;4348692;32;20180;-62
2022/10/18 03:32:49;;;;;;;1.23;1.23;;;;;;;13.30;86.53;96414.69;4334887;32;20199;-62
2022/10/18 03:35:15;;;;;;;0.53;0.53;;;;;;;13.26;87.10;96411.78;4357312;32;20177;-62
2022/10/18 03:37:40;;;;;;;0.87;0.87;;;;;;;13.26;86.90;96411.00;4348132;32;23192;-62
2022/10/18 03:40:06;;;;;;;0.60;0.60;;;;;;;13.40;86.49;96415.34;4346573;32;20200;-62
2022/10/18 03:42:31;;;;;;;0.73;0.73;;;;;;;13.41;86.63;96418.81;4348371;32;20181;-62
2022/10/18 03:44:57;;;;;;;1.23;1.17;;;;;;;13.16;87.04;96417.19;4328155;32;20195;-62
2022/10/18 03:47:22;;;;;;;1.53;1.43;;;;;;;13.09;87.89;96409.50;4325252;32;20185;-62
2022/10/18 03:49:47;;;;;;;1.13;1.07;;;;;;;13.12;88.03;96410.03;4334501;32;20211;-62
2022/10/18 03:52:13;;;;;;;0.80;0.80;;;;;;;13.24;87.12;96408.59;4341214;32;20219;-62
2022/10/18 03:54:38;;;;;;;1.20;1.10;;;;;;;13.26;86.65;96411.78;4341459;32;20240;-62
2022/10/18 03:57:03;;;;;;;0.53;0.53;;;;;;;13.11;87.11;96409.22;4350516;32;20186;-62
2022/10/18 03:59:29;;;;;;;0.40;0.40;;;;;;;13.16;87.42;96409.22;4340777;32;20228;-62
2022/10/18 04:01:54;;;;;;;0.83;0.83;;;;;;;13.28;86.46;96408.84;4341253;32;20192;-62
2022/10/18 04:04:20;;;;;;;1.17;0.67;;;;;;;13.30;86.46;96412.78;4344073;32;20185;-62
2022/10/18 04:06:45;;;;;;;0.97;0.53;;;;;;;13.27;86.29;96415.25;4351839;32;20181;-62
2022/10/18 04:09:10;;;;;;;1.00;1.00;;;;;;;13.18;86.24;96412.38;4338376;32;20269;-62
2022/10/18 04:11:36;;;;;;;1.13;0.90;;;;;;;13.14;86.35;96418.53;4333165;32;20199;-62
2022/10/18 04:14:01;;;;;;;0.80;0.80;;;;;;;13.25;85.93;96420.84;4337995;32;20205;-62
2022/10/18 04:16:26;;;;;;;0.60;0.60;;;;;;;13.22;86.01;96425.94;4342109;32;20201;-62
2022/10/18 04:18:52;;;;;;;1.10;1.00;;;;;;;13.17;86.16;96429.44;4349236;32;20207;-62
2022/10/18 04:21:17;;;;;;;0.57;0.57;;;;;;;13.27;86.32;96418.69;4355254;32;20187;-62
2022/10/18 04:23:42;;;;;;;0.70;0.70;;;;;;;13.19;86.77;96421.97;4321015;33;20207;-62
2022/10/18 04:26:08;;;;;;;2.23;1.10;;;;;;;13.13;87.32;96427.59;4338428;32;20189;-62
2022/10/18 04:28:34;;;;;;;0.77;0.77;;;;;;;13.10;87.85;96428.94;4340197;32;20178;-61
2022/10/18 04:30:59;;;;;;;0.80;0.80;;;;;;;13.20;87.59;96425.44;4339872;32;20277;-62
2022/10/18 04:33:25;;;;;;;2.53;1.70;;;;;;;13.31;87.24;96421.56;4331655;32;20216;-62
2022/10/18 04:35:52;;;;;;;0.60;0.60;;;;;;;13.33;86.80;96419.41;4357984;32;20185;-62
2022/10/18 04:38:18;;;;;;;0.77;0.77;;;;;;;13.26;87.09;96424.31;4342591;32;20265;-62
2022/10/18 04:40:43;;;;;;;0.67;0.67;;;;;;;13.30;86.96;96417.34;4319376;33;20203;-62
2022/10/18 04:43:09;;;;;;;0.70;0.70;;;;;;;13.33;87.25;96416.75;4335303;32;20216;-62
2022/10/18 04:45:35;;;;;;;0.97;0.97;;;;;;;13.40;86.42;96417.22;4329080;32;20204;-62
2022/10/18 04:48:00;;;;;;;0.87;0.87;;;;;;;13.31;86.70;96413.56;4340231;32;20177;-62
2022/10/18 04:50:26;;;;;;;0.40;0.40;;;;;;;13.28;86.84;96414.16;4347384;32;20196;-62
2022/10/18 04:52:52;;;;;;;1.23;0.90;;;;;;;13.28;87.23;96414.16;4335635;32;20196;-63
2022/10/18 04:55:18;;;;;;;1.10;1.00;;;;;;;13.33;85.96;96404.22;4330202;32;20181;-62
2022/10/18 04:57:43;;;;;;;1.00;1.00;;;;;;;13.32;85.63;96413.28;4333097;32;20220;-62
2022/10/18 05:00:09;;;;;;;1.03;0.97;;;;;;;13.30;85.46;96407.44;4337631;32;20279;-62
2022/10/18 05:02:35;;;;;;;0.90;0.90;;;;;;;13.32;85.48;96404.50;4340504;32;20174;-62
2022/10/18 05:05:00;;;;;;;0.43;0.43;;;;;;;13.18;86.42;96404.41;4335389;32;20212;-61
2022/10/18 05:07:25;;;;;;;1.50;0.97;;;;;;;13.29;85.77;96407.75;4338587;32;20273;-62
2022/10/18 05:09:51;;;;;;;1.00;0.57;;;;;;;13.19;85.62;96402.53;4341986;32;20181;-62
2022/10/18 05:12:16;;;;;;;0.87;0.87;;;;;;;13.21;85.91;96397.72;4340697;32;20320;-62
2022/10/18 05:14:41;;;;;;;0.60;0.60;;;;;;;13.26;85.74;96400.31;4341924;32;20276;-62
2022/10/18 05:17:07;;;;;;;0.70;0.70;;;;;;;13.27;85.36;96410.72;4346552;32;20197;-62
2022/10/18 05:19:32;;;;;;;1.37;0.83;;;;;;;13.36;84.75;96418.84;4325806;32;20255;-61
2022/10/18 05:21:57;;;;;;;0.50;0.50;;;;;;;13.34;84.28;96419.13;4337567;32;20194;-62
2022/10/18 05:24:23;;;;;;;0.50;0.50;;;;;;;13.24;84.41;96411.28;4338172;32;20189;-62
2022/10/18 05:26:48;;;;;;;0.87;0.60;;;;;;;13.20;85.05;96406.78;4337521;32;20204;-62
2022/10/18 05:29:13;;;;;;;0.70;0.70;;;;;;;13.23;84.98;96406.22;4338446;32;20185;-61
2022/10/18 05:31:39;;;;;;;0.67;0.67;;;;;;;13.17;85.12;96391.34;4329942;32;20236;-62
2022/10/18 05:34:04;;;;;;;8.37;0.70;;;;;;;13.07;85.44;96387.72;4320299;33;20186;-62
2022/10/18 05:36:29;;;;;;;0.70;0.70;;;;;;;12.96;85.54;96385.41;4326567;32;20240;-62
2022/10/18 05:38:55;;;;;;;0.67;0.67;;;;;;;13.07;85.50;96386.91;4333550;32;20205;-62
2022/10/18 05:41:21;;;;;;;0.97;0.87;;;;;;;13.28;84.85;96387.53;4330631;32;20327;-62
2022/10/18 05:43:46;;;;;;;0.50;0.50;;;;;;;13.05;85.26;96384.53;4327150;32;20197;-62
2022/10/18 05:46:11;;;;;;;1.10;1.10;;;;;;;13.13;85.31;96390.28;4335413;32;20205;-62
2022/10/18 05:48:37;;;;;;;1.13;1.03;;;;;;;13.30;84.62;96401.34;4326838;32;20195;-62
2022/10/18 05:51:06;;;;;;;0.93;0.93;;;;;;;13.25;84.17;96393.41;4332014;32;20268;-61
2022/10/18 05:53:31;;;;;;;1.10;1.10;;;;;;;13.40;83.89;96399.34;4338046;32;20193;-62
2022/10/18 05:56:01;;;;;;;1.07;1.00;;;;;;;13.34;83.87;96415.69;4328913;32;20197;-62
2022/10/18 05:58:26;;;;;;;0.67;0.67;;;;;;;13.29;84.51;96415.75;4331993;32;20236;-61
2022/10/18 06:00:52;;;;;;;0.90;0.90;;;;;;;13.30;85.17;96412.78;4350588;32;20211;-62
2022/10/18 06:03:17;;;;;;;1.17;0.73;;;;;;;13.40;84.78;96411.87;4336377;33;20197;-62
2022/10/18 06:05:42;;;;;;;0.77;0.77;;;;;;;13.40;84.87;96417.22;4327911;32;20181;-61
2022/10/18 06:08:08;;;;;;;0.63;0.63;;;;;;;13.45;84.98;96419.03;4349114;32;20207;-61
2022/10/18 06:10:33;;;;;;;1.73;1.33;;;;;;;13.29;85.82;96429.88;4336564;32;20181;-62
2022/10/18 06:12:58;;;;;;;1.07;1.00;;;;;;;13.28;85.94;96428.28;4340267;32;20291;-62
2022/10/18 06:15:24;;;;;;;0.97;0.97;;;;;;;13.28;86.29;96427.50;4341563;32;20196;-62
2022/10/18 06:17:49;;;;;;;0.53;0.50;;;;;;;13.33;86.09;96422.09;4327637;33;20176;-62
2022/10/18 06:20:15;;;;;;;1.00;1.00;;;;;;;13.35;85.54;96425.25;4333596;32;20272;-62
2022/10/18 06:22:40;;;;;;;1.17;1.13;;;;;;;13.32;85.92;96423.97;4353337;32;20189;-61
2022/10/18 06:25:05;;;;;;;1.47;1.30;;;;;;;13.48;86.14;96423.81;4347911;32;20194;-62
2022/10/18 06:27:32;;;;;;;0.70;0.70;;;;;;;13.43;86.10;96418.53;4321532;33;20224;-61
2022/10/18 06:29:58;;;;;;;12.03;1.13;;;;;;;13.67;85.38;96421.97;4353829;32;20204;-61
2022/10/18 06:32:23;;;;;;;0.90;0.90;;;;;;;13.74;85.08;96417.06;4354796;32;20173;-62
2022/10/18 06:34:48;;;;;;;1.00;0.90;;;;;;;13.85;84.61;96413.22;4343233;32;20181;-63
2022/10/18 06:37:14;;;;;;;0.67;0.67;;;;;;;13.77;85.06;96416.50;4347714;32;20184;-61
2022/10/18 06:39:39;;;;;;;0.80;0.80;;;;;;;13.83;84.98;96414.56;4336782;32;20224;-61
2022/10/18 06:42:05;;;;;;;0.97;0.97;;;;;;;13.86;84.67;96414.00;4343205;32;20205;-60
2022/10/18 06:44:30;;;;;;;1.13;1.03;;;;;;;13.95;84.82;96412.28;4336613;32;20264;-46
2022/10/18 06:46:55;;;;;;;1.87;1.77;;;;;;;15.26;100.00;96408.63;4339388;32;20177;-44
2022/10/18 06:49:21;;;;;;;1.67;1.57;;;;;;;15.50;100.00;96406.56;4349056;32;20187;-45
2022/10/18 06:51:46;;;;;;;0.83;0.83;;;;;;;15.89;95.81;96413.28;4342612;32;20207;-44
2022/10/18 06:54:12;;;;;;;0.80;0.80;;;;;;;16.02;89.74;96423.97;4328364;32;20264;-45
2022/10/18 06:56:37;;;;;;;0.80;0.80;;;;;;;16.29;85.57;96431.16;4348297;32;20306;-42
2022/10/18 06:59:03;;;;;;;1.03;0.80;;;;;;;16.47;83.58;96435.56;4338274;32;20204;-60
2022/10/18 07:01:29;;;;;;;1.67;1.57;;;;;;;16.07;77.19;96442.59;4339379;32;20201;-59
2022/10/18 07:03:55;;;;;;;1.07;1.07;;;;;;;15.73;77.53;96445.72;4324292;32;20235;-59
2022/10/18 07:06:22;;;;;;;0.90;0.90;;;;;;;15.47;78.79;96449.94;4343027;32;20185;-60
2022/10/18 07:08:48;;;;;;;0.77;0.77;;;;;;;15.12;79.73;96448.69;4347134;32;20204;-58
2022/10/18 07:11:17;;;;;;;0.97;0.97;;;;;;;14.89;80.72;96447.75;4338612;32;20182;-61
2022/10/18 07:13:42;;;;;;;1.10;1.10;;;;;;;14.70;81.58;96455.81;4338134;32;20300;-61
2022/10/18 07:16:10;;;;;;;1.40;0.97;;;;;;;14.60;82.51;96453.28;4332466;32;20197;-62
2022/10/18 07:18:40;;;;;;;0.30;0.30;;;;;;;14.62;82.76;96458.31;4335206;32;20178;-57
2022/10/18 07:21:09;;;;;;;8.70;1.10;;;;;;;14.67;83.05;96460.94;4356293;32;20189;-61
2022/10/18 07:23:37;;;;;;;0.83;0.83;;;;;;;14.53;83.03;96460.09;4332403;32;20205;-63
2022/10/18 07:26:10;;;;;;;1.20;1.10;;;;;;;14.55;83.61;96457.94;4346371;32;20208;-62
2022/10/18 07:28:35;;;;;;;8.60;1.23;;;;;;;14.65;83.48;96455.88;4339019;32;20177;-62
2022/10/18 07:31:04;;;;;;;0.70;0.70;;;;;;;14.69;83.34;96456.09;4328180;32;20272;-63
2022/10/18 07:33:30;;;;;;;1.43;0.80;;;;;;;14.80;83.58;96454.84;4344389;32;20350;-63
2022/10/18 07:35:55;;;;;;;1.00;1.00;;;;;;;14.84;83.67;96450.50;4352228;32;20181;-63
2022/10/18 07:38:22;;;;;;;0.73;0.73;;;;;;;14.90;84.02;96448.53;4344458;32;20182;-63
2022/10/18 07:40:54;;;;;;;2.00;0.90;;;;;;;14.90;83.53;96449.34;4331246;32;20185;-63
2022/10/18 07:43:19;;;;;;;0.60;0.60;;;;;;;14.95;84.02;96446.59;4328280;32;20178;-64
2022/10/18 07:45:54;;;;;;;1.20;1.20;;;;;;;14.98;83.97;96448.66;4332206;32;20189;-64
2022/10/18 07:48:19;;;;;;;0.70;0.70;;;;;;;15.00;84.40;96454.50;4324633;32;20217;-63
2022/10/18 07:50:45;;;;;;;0.70;0.70;;;;;;;15.05;83.94;96454.41;4321649;32;20270;-62
2022/10/18 07:53:13;;;;;;;1.20;1.13;;;;;;;15.05;84.34;96446.41;4315155;32;20178;-63
2022/10/18 07:55:43;;;;;;;0.90;0.90;;;;;;;15.09;84.55;96449.28;4311639;33;20217;-62
2022/10/18 07:58:13;;;;;;;0.93;0.93;;;;;;;15.11;84.13;96453.25;4338838;32;20241;-62
2022/10/18 08:00:40;;;;;;;0.50;0.50;;;;;;;15.17;84.11;96445.16;4331147;32;20177;-62
2022/10/18 08:03:07;;;;;;;0.70;0.70;;;;;;;15.25;84.04;96449.81;4325765;32;20185;-68
2022/10/18 08:05:33;;;;;;;0.37;0.37;;;;;;;15.23;85.27;96443.97;4337300;32;20181;-62
2022/10/18 08:08:00;;;;;;;0.87;0.87;;;;;;;15.30;85.28;96445.16;4322008;32;20373;-62
2022/10/18 08:10:26;;;;;;;1.27;1.10;;;;;;;15.30;84.41;96455.88;4348430;32;20177;-62
2022/10/18 08:12:53;;;;;;;0.80;0.80;;;;;;;15.34;84.17;96459.53;4335966;32;20248;-61
2022/10/18 08:15:23;;;;;;;0.80;0.80;;;;;;;15.34;84.96;96456.87;4343393;32;20181;-60
2022/10/18 08:17:50;;;;;;;0.80;0.80;;;;;;;15.33;84.65;96462.50;4335830;32;20221;-60
2022/10/18 08:20:20;;;;;;;2.97;1.13;;;;;;;15.38;84.80;96459.75;4315955;33;20256;-60
2022/10/18 08:22:49;;;;;;;0.63;0.63;;;;;;;15.41;84.01;96456.47;4315997;32;20220;-61
2022/10/18 08:25:19;;;;;;;1.03;1.03;;;;;;;15.39;84.08;96454.06;4344599;32;20243;-61
2022/10/18 08:27:47;;;;;;;6.63;1.30;;;;;;;15.45;83.58;96460.91;4335039;32;20185;-61
2022/10/18 08:30:15;;;;;;;1.03;0.83;;;;;;;15.52;83.44;96460.53;4339855;32;20288;-62
2022/10/18 08:32:40;;;;;;;0.97;0.93;;;;;;;15.52;83.25;96460.53;4341913;32;20224;-58
2022/10/18 08:35:07;;;;;;;0.50;0.50;;;;;;;15.50;83.83;96462.72;4302787;33;20291;-65
2022/10/18 08:37:34;;;;;;;3.80;1.47;;;;;;;15.59;83.47;96465.53;4303348;33;20190;-59
2022/10/18 08:40:01;;;;;;;1.53;1.27;;;;;;;15.59;83.72;96460.97;4290487;32;20279;-57
2022/10/18 08:43:03;;;;;;;1.23;1.23;;;;;;;15.64;83.42;96458.19;4304903;32;20253;-58
2022/10/18 08:45:43;;;;;;;1.97;1.87;;;;;;;15.70;83.76;96459.69;4320729;32;20264;-59
2022/10/18 08:48:20;;;;;;;1.37;1.27;;;;;;;15.79;83.66;96457.87;4319388;32;20190;-60
2022/10/18 08:50:48;;;;;;;0.80;0.80;;;;;;;15.89;83.04;96454.22;4323718;32;20267;-59
2022/10/18 08:53:33;;;;;;;1.33;1.23;;;;;;;15.97;83.21;96450.06;4318631;32;20209;-59
2022/10/18 08:56:28;;;;;;;1.30;1.30;;;;;;;16.07;83.01;96444.47;4307956;32;20414;-59
2022/10/18 08:58:54;;;;;;;0.70;0.70;;;;;;;16.14;82.31;96444.88;4332559;32;20201;-58
2022/10/18 09:02:09;;;;;;;1.13;1.13;;;;;;;16.25;81.85;96448.09;4341123;32;20186;-60
2022/10/18 09:04:53;;;;;;;1.43;0.73;;;;;;;16.37;82.55;96449.19;4303109;33;20186;-60
2022/10/18 09:07:22;;;;;;;0.80;0.80;;;;;;;16.48;81.02;96447.84;4319141;32;20205;-60
2022/10/18 09:10:25;;;;;;;1.00;1.00;;;;;;;16.59;82.08;96440.38;4342167;32;20186;-59
2022/10/18 09:13:16;;;;;;;1.73;1.63;;;;;;;16.68;82.14;96451.19;4333400;32;20291;-60
2022/10/18 09:15:49;;;;;;;4.37;1.53;;;;;;;16.83;80.77;96450.84;4330430;32;20221;-46
2022/10/18 09:18:47;;;;;;;0.77;0.77;;;;;;;17.14;87.89;96440.94;4330592;32;20203;-47
2022/10/18 09:21:36;;;;;;;1.40;1.40;;;;;;;17.78;89.23;96435.25;4319121;32;20256;-44
2022/10/18 09:24:33;;;;;;;0.97;0.97;;;;;;;18.09;85.78;96440.50;4306210;32;20194;-45
2022/10/18 09:27:17;;;;;;;5.57;0.97;;;;;;;18.25;83.29;96446.25;4217137;33;20231;-47
2022/10/18 09:30:15;;;;;;;1.10;1.00;;;;;;;18.46;80.70;96441.84;4249650;33;20206;-59
2022/10/18 09:33:05;;;;;;;0.53;0.53;;;;;;;18.33;76.97;96446.22;4260117;33;20226;-58
2022/10/18 09:35:43;;;;;;;0.80;0.80;;;;;;;18.19;77.69;96443.69;4246929;33;20216;-58
2022/10/18 09:38:15;;;;;;;0.93;0.93;;;;;;;18.00;78.82;96445.88;4269062;33;20226;-59
2022/10/18 09:40:57;;;;;;;0.97;0.97;;;;;;;18.03;79.20;96444.47;4266867;33;20230;-59
2022/10/18 09:43:46;;;;;;;0.93;0.87;;;;;;;18.10;79.12;96442.09;4238954;33;20194;-58
2022/10/18 09:46:15;;;;;;;0.77;0.77;;;;;;;18.14;79.30;96441.16;4322629;32;20237;-58
2022/10/18 09:48:57;;;;;;;0.87;0.87;;;;;;;18.22;79.46;96441.50;4321668;32;20254;-58
2022/10/18 09:51:29;;;;;;;0.67;0.67;;;;;;;18.41;77.91;96440.09;4327145;32;20180;-59
2022/10/18 09:54:13;;;;;;;0.30;0.30;;;;;;;18.44;77.14;96439.47;4317022;32;20169;-61
2022/10/18 09:57:03;;;;;;;1.93;1.17;;;;;;;18.53;77.55;96442.94;4284700;33;20190;-63
2022/10/18 09:59:48;;;;;;;0.73;0.73;;;;;;;18.60;77.90;96436.31;4282551;33;20268;-59
2022/10/18 10:02:34;;;;;;;0.90;0.77;;;;;;;18.60;77.29;96444.38;4311834;32;20199;-59
2022/10/18 10:05:00;;;;;;;0.63;0.63;;;;;;;18.65;77.44;96438.88;4331566;32;20364;-59
2022/10/18 10:07:34;;;;;;;0.60;0.60;;;;;;;18.74;76.18;96443.13;4323436;33;20231;-59
2022/10/18 10:10:26;;;;;;;0.90;0.90;;;;;;;18.83;75.80;96435.84;4283591;33;20285;-59
2022/10/18 10:13:21;;;;;;;0.90;0.90;;;;;;;18.92;75.85;96441.19;4322602;32;20193;-58
2022/10/18 10:15:53;;;;;;;1.10;1.10;;;;;;;18.93;76.12;96434.69;4311492;32;20256;-57
2022/10/18 10:18:35;;;;;;;0.70;0.70;;;;;;;18.85;75.42;96422.88;4263697;33;20263;-58
2022/10/18 10:21:14;;;;;;;0.90;0.90;;;;;;;18.89;74.19;96428.41;4253278;32;20258;-58
2022/10/18 10:23:54;;;;;;;3.33;1.17;;;;;;;18.88;74.17;96426.81;4261746;32;20189;-58
2022/10/18 10:26:33;;;;;;;0.80;0.80;;;;;;;18.84;74.15;96428.56;4275766;32;20203;-59
2022/10/18 10:28:59;;;;;;;0.80;0.80;;;;;;;18.85;73.99;96419.37;4281543;33;20186;-58
2022/10/18 10:31:29;;;;;;;0.53;0.53;;;;;;;18.76;73.66;96423.97;4292242;32;20189;-58
2022/10/18 10:34:17;;;;;;;0.90;0.90;;;;;;;18.73;74.28;96422.72;4323441;32;20240;-58
2022/10/18 10:36:52;;;;;;;2.63;1.33;;;;;;;18.71;75.38;96427.59;4319677;32;20182;-58
2022/10/18 10:39:19;;;;;;;1.00;0.83;;;;;;;18.66;75.95;96418.94;4297732;33;20207;-58
2022/10/18 10:41:59;;;;;;;1.43;1.30;;;;;;;18.63;75.78;96425.72;4310004;32;20256;-58
2022/10/18 10:44:43;;;;;;;2.13;1.67;;;;;;;18.62;75.64;96418.00;4282026;32;20230;-58
2022/10/18 10:47:09;;;;;;;1.13;1.13;;;;;;;18.66;75.79;96416.25;4301493;33;20265;-57
2022/10/18 10:49:46;;;;;;;0.97;0.97;;;;;;;18.67;75.75;96412.44;4310871;33;20201;-58
2022/10/18 10:52:28;;;;;;;1.90;1.80;;;;;;;18.80;75.59;96414.16;4300270;33;20196;-58
2022/10/18 10:54:56;;;;;;;3.20;2.07;;;;;;;18.71;76.19;96416.84;4292684;32;20185;-58
2022/10/18 10:57:26;;;;;;;2.87;1.97;;;;;;;18.70;75.99;96414.50;4283506;32;20197;-59
2022/10/18 11:00:00;;;;;;;1.97;1.83;;;;;;;18.77;76.24;96409.41;4285569;33;20185;-59
2022/10/18 11:02:44;;;;;;;1.13;1.13;;;;;;;18.84;75.96;96398.97;4293268;32;20186;-59
2022/10/18 11:05:28;;;;;;;1.73;1.60;;;;;;;18.91;75.49;96403.87;4314073;32;20221;-59
2022/10/18 11:08:09;;;;;;;2.03;1.93;;;;;;;18.90;76.20;96395.03;4278767;32;20189;-59
2022/10/18 11:10:49;;;;;;;1.20;1.17;;;;;;;18.90;76.21;96391.53;4287257;32;20194;-59
2022/10/18 11:13:35;;;;;;;0.80;0.80;;;;;;;18.89;76.77;96380.00;4283794;32;20182;-59
2022/10/18 11:17:09;;;;;;;1.00;1.00;;;;;;;18.88;76.17;96398.03;4272119;33;20208;-59
2022/10/18 11:20:04;;;;;;;1.77;1.00;;;;;;;18.93;75.48;96383.59;4194490;33;20233;-60
2022/10/18 11:22:49;;;;;;;3.60;1.23;;;;;;;19.00;75.24;96381.22;4283675;33;20273;-59
2022/10/18 11:25:16;;;;;;;1.30;1.20;;;;;;;19.13;74.46;96372.16;4283925;32;20186;-59
2022/10/18 11:28:26;;;;;;;0.70;0.70;;;;;;;19.26;72.70;96373.06;4236919;33;20189;-61
2022/10/18 11:31:28;;;;;;;1.17;1.17;;;;;;;19.34;73.06;96374.13;4245229;33;20175;-60
2022/10/18 11:34:10;;;;;;;1.03;1.03;;;;;;;19.38;72.24;96375.88;4271536;33;20189;-59
2022/10/18 11:37:13;;;;;;;7.43;1.90;;;;;;;19.58;71.61;96373.59;4244626;33;20186;-60
2022/10/18 11:40:19;;;;;;;1.13;1.00;;;;;;;19.71;71.01;96373.37;4220066;33;20238;-60
2022/10/18 11:43:22;;;;;;;1.27;0.77;;;;;;;19.78;70.66;96370.94;4219959;33;20351;-60
2022/10/18 11:46:26;;;;;;;3.43;0.93;;;;;;;19.61;72.03;96365.66;4247516;33;20213;-60
2022/10/18 11:49:29;;;;;;;2.10;1.27;;;;;;;19.58;72.50;96368.19;4284235;33;20289;-59
2022/10/18 11:52:31;;;;;;;0.97;0.97;;;;;;;19.49;72.12;96360.94;4198909;33;20191;-59
2022/10/18 11:55:39;;;;;;;0.80;0.80;;;;;;;19.61;71.68;96365.66;4285004;33;20344;-59
2022/10/18 11:58:46;;;;;;;0.73;0.73;;;;;;;19.58;73.31;96360.91;4305841;33;20221;-58